createdAt,value
2023-05-11T00:04:28.420Z,4.47
2023-05-11T00:09:31.237Z,5.10
2023-05-11T00:14:34.024Z,4.78
2023-05-11T00:19:36.765Z,5.03
2023-05-11T00:24:39.480Z,4.57
2023-05-11T00:29:42.455Z,4.50
2023-05-11T00:34:46.022Z,4.97
2023-05-11T00:39:48.778Z,4.75
2023-05-11T00:44:51.612Z,5.60
2023-05-11T00:49:54.947Z,5.03
2023-05-11T00:54:57.718Z,5.07
2023-05-11T01:00:03.847Z,4.40
2023-05-11T01:05:10.844Z,4.70
2023-05-11T01:10:31.511Z,4.75
2023-05-11T01:15:43.641Z,5.13
2023-05-11T01:20:52.167Z,4.97
2023-05-11T01:26:30.653Z,5.13
2023-05-11T01:31:35.529Z,6.13
2023-05-11T01:36:44.634Z,4.80
2023-05-11T01:41:52.620Z,4.95
2023-05-11T01:46:56.601Z,5.68
2023-05-11T01:52:01.788Z,5.47
2023-05-11T01:57:07.045Z,5.05
2023-05-11T02:02:10.608Z,4.93
2023-05-11T02:07:14.594Z,5.43
2023-05-11T02:12:20.064Z,5.72
2023-05-11T02:17:25.263Z,6.13
2023-05-11T02:22:29.764Z,5.75
2023-05-11T02:27:33.191Z,5.93
2023-05-11T02:32:39.153Z,6.20
2023-05-11T02:37:45.484Z,5.20
2023-05-11T02:42:57.183Z,7.00
2023-05-11T02:48:05.951Z,6.95
2023-05-11T02:53:14.951Z,6.45
2023-05-11T02:58:20.412Z,5.53
2023-05-11T03:03:30.135Z,6.03
2023-05-11T03:08:33.315Z,6.75
2023-05-11T03:13:37.409Z,6.07
2023-05-11T03:18:42.220Z,6.38
2023-05-11T03:23:46.224Z,5.75
2023-05-11T03:28:52.509Z,6.60
2023-05-11T03:33:55.866Z,6.55
2023-05-11T03:39:02.122Z,15.77
2023-05-11T03:44:11.093Z,13.05
2023-05-11T03:49:18.644Z,11.18
2023-05-11T03:54:21.567Z,9.55
2023-05-11T03:59:26.402Z,9.50
2023-05-11T04:04:30.837Z,9.10
2023-05-11T04:09:36.365Z,9.52
2023-05-11T04:14:39.095Z,12.23
2023-05-11T04:19:41.801Z,13.20
2023-05-11T04:24:44.632Z,7.95
2023-05-11T04:29:48.780Z,7.55
2023-05-11T04:34:52.801Z,8.48
2023-05-11T04:39:58.661Z,9.57
2023-05-11T04:45:01.813Z,8.40
2023-05-11T04:50:07.748Z,7.60
2023-05-11T04:55:11.723Z,7.47
2023-05-11T05:00:15.849Z,6.47
2023-05-11T05:05:18.985Z,6.53
2023-05-11T05:10:22.152Z,6.93
2023-05-11T05:15:25.143Z,5.82
2023-05-11T05:20:27.904Z,5.07
2023-05-11T05:25:30.655Z,4.63
2023-05-11T05:30:33.495Z,3.97
2023-05-11T05:35:36.379Z,4.53
2023-05-11T05:40:40.272Z,3.95
2023-05-11T05:45:43.955Z,4.38
2023-05-11T05:50:47.338Z,3.85
2023-05-11T05:55:50.363Z,4.95
2023-05-11T06:00:53.576Z,3.55
2023-05-11T06:05:56.292Z,2.53
2023-05-11T06:10:59.528Z,2.40
2023-05-11T06:16:02.306Z,2.33
2023-05-11T06:21:08.948Z,3.20
2023-05-11T06:26:12.219Z,2.63
2023-05-11T06:31:15.804Z,2.22
2023-05-11T06:36:19.621Z,2.72
2023-05-11T06:41:22.755Z,2.60
2023-05-11T06:46:27.381Z,2.78
2023-05-11T06:51:30.839Z,2.63
2023-05-11T06:56:34.257Z,2.40
2023-05-11T07:01:37.094Z,2.00
2023-05-11T07:06:39.722Z,1.77
2023-05-11T07:11:42.399Z,2.53
2023-05-11T07:16:46.588Z,1.92
2023-05-11T07:21:49.368Z,1.98
2023-05-11T07:26:52.122Z,1.90
2023-05-11T07:31:54.890Z,2.03
2023-05-11T07:36:57.861Z,2.42
2023-05-11T07:42:00.597Z,2.13
2023-05-11T07:47:03.267Z,1.80
2023-05-11T07:52:06.031Z,2.13
2023-05-11T07:57:09.139Z,1.92
2023-05-11T08:02:13.307Z,2.22
2023-05-11T08:07:16.626Z,2.65
2023-05-11T08:12:19.274Z,2.00
2023-05-11T08:17:22.026Z,2.25
2023-05-11T08:22:24.838Z,2.50
2023-05-11T08:27:27.502Z,4.22
2023-05-11T08:32:30.501Z,2.70
2023-05-11T08:37:33.321Z,2.03
2023-05-11T08:42:40.098Z,2.63
2023-05-11T08:47:42.896Z,2.15
2023-05-11T08:52:46.334Z,1.70
2023-05-11T08:57:51.754Z,2.00
2023-05-11T09:02:56.090Z,2.28
2023-05-11T09:08:06.275Z,2.10
2023-05-11T09:13:09.604Z,2.10
2023-05-11T09:18:13.448Z,1.85
2023-05-11T09:23:17.607Z,2.00
2023-05-11T09:28:27.229Z,1.75
2023-05-11T09:33:30.067Z,2.80
2023-05-11T09:38:33.096Z,2.95
2023-05-11T09:43:35.777Z,2.55
2023-05-11T09:48:38.593Z,2.28
2023-05-11T09:53:46.293Z,1.55
2023-05-11T09:58:51.654Z,1.60
2023-05-11T10:04:00.392Z,2.05
2023-05-11T10:09:13.057Z,1.70
2023-05-11T10:14:16.697Z,1.02
2023-05-11T10:19:19.872Z,1.80
2023-05-11T10:24:23.284Z,1.30
2023-05-11T10:29:26.841Z,2.10
2023-05-11T10:34:30.130Z,1.35
2023-05-11T10:39:33.386Z,1.80
2023-05-11T10:44:40.711Z,1.95
2023-05-11T10:50:05.199Z,1.80
2023-05-11T10:55:28.736Z,1.60
2023-05-11T11:00:50.336Z,1.40
2023-05-11T11:10:56.505Z,1.10
2023-05-11T11:16:00.871Z,1.25
2023-05-11T11:21:04.630Z,1.48
2023-05-11T11:26:08.595Z,1.10
2023-05-11T11:31:28.200Z,1.35
2023-05-11T11:36:55.530Z,1.05
2023-05-11T11:42:06.798Z,2.08
2023-05-11T11:47:12.953Z,2.45
2023-05-11T11:52:28.697Z,1.92
2023-05-11T11:57:34.250Z,8.20
2023-05-11T12:02:41.931Z,2.35
2023-05-11T12:07:48.456Z,2.30
2023-05-11T12:12:55.145Z,2.15
2023-05-11T12:17:58.580Z,2.70
2023-05-11T12:23:01.679Z,2.70
2023-05-11T12:28:04.909Z,2.30
2023-05-11T12:33:08.345Z,2.28
2023-05-11T12:38:11.804Z,2.00
2023-05-11T12:43:18.372Z,2.05
2023-05-11T12:48:21.397Z,1.60
2023-05-11T12:53:24.118Z,5.95
2023-05-11T12:58:26.945Z,2.30
2023-05-11T13:03:31.664Z,1.80
2023-05-11T13:08:39.088Z,1.30
2023-05-11T13:13:42.379Z,1.40
2023-05-11T13:19:00.782Z,0.90
2023-05-11T13:24:04.136Z,1.30
2023-05-11T13:29:11.207Z,1.10
2023-05-11T13:34:14.640Z,1.38
2023-05-11T13:39:17.447Z,1.20
2023-05-11T13:44:20.161Z,1.10
2023-05-11T13:49:22.986Z,1.30
2023-05-11T13:54:25.697Z,3.28
2023-05-11T13:59:28.556Z,1.30
2023-05-11T14:04:31.471Z,1.40
2023-05-11T14:09:34.361Z,1.60
2023-05-11T14:14:37.013Z,1.67
2023-05-11T14:19:40.429Z,1.40
2023-05-11T14:24:43.159Z,1.40
2023-05-11T14:29:45.955Z,1.67
2023-05-11T14:34:48.905Z,1.42
2023-05-11T14:39:51.592Z,1.50
2023-05-11T14:44:54.361Z,1.95
2023-05-11T14:49:57.080Z,1.52
2023-05-11T14:54:59.890Z,1.45
2023-05-11T15:00:03.215Z,1.75
2023-05-11T15:05:10.638Z,1.70
2023-05-11T15:10:13.298Z,1.80
2023-05-11T15:15:16.699Z,1.52
2023-05-11T15:20:19.841Z,1.80
2023-05-11T15:25:22.595Z,1.90
2023-05-11T15:30:25.491Z,1.60
2023-05-11T15:35:28.230Z,2.47
2023-05-11T15:40:30.954Z,2.50
2023-05-11T15:45:33.983Z,3.15
2023-05-11T15:50:36.793Z,3.10
2023-05-11T15:55:41.101Z,3.00
2023-05-11T16:00:43.876Z,3.03
2023-05-11T16:05:46.790Z,3.25
2023-05-11T16:10:49.499Z,2.88
2023-05-11T16:15:52.512Z,2.38
2023-05-11T16:20:55.172Z,1.88
2023-05-11T16:25:58.036Z,1.52
2023-05-11T16:31:01.083Z,1.00
2023-05-11T16:36:05.704Z,1.10
2023-05-11T16:41:08.453Z,1.20
2023-05-11T16:46:11.270Z,2.10
2023-05-11T16:51:14.179Z,1.92
2023-05-11T16:56:17.669Z,1.48
2023-05-11T17:01:21.643Z,2.03
2023-05-11T17:06:26.914Z,1.83
2023-05-11T17:11:29.625Z,1.80
2023-05-11T17:16:32.515Z,1.88
2023-05-11T17:21:35.253Z,2.22
2023-05-11T17:26:47.020Z,2.03
2023-05-11T17:31:51.820Z,3.33
2023-05-11T17:36:55.233Z,14.05
2023-05-11T17:41:58.155Z,4.43
2023-05-11T17:47:00.896Z,4.72
2023-05-11T17:52:03.695Z,3.53
2023-05-11T17:57:06.525Z,3.22
2023-05-11T18:02:10.308Z,2.63
2023-05-11T18:07:12.964Z,4.47
2023-05-11T18:12:16.328Z,6.03
2023-05-11T18:17:19.267Z,4.57
2023-05-11T18:22:23.311Z,4.22
2023-05-11T18:27:26.118Z,4.95
2023-05-11T18:32:28.768Z,3.47
2023-05-11T18:37:31.871Z,3.05
2023-05-11T18:42:37.754Z,3.03
2023-05-11T18:47:44.537Z,3.00
2023-05-11T18:52:47.456Z,3.75
2023-05-11T18:57:50.704Z,3.70
2023-05-11T19:02:56.231Z,4.80
2023-05-11T19:07:59.064Z,4.38
2023-05-11T19:13:01.700Z,26.80
2023-05-11T19:18:05.639Z,6.25
2023-05-11T19:23:08.327Z,4.50
2023-05-11T19:28:11.142Z,4.30
2023-05-11T19:33:13.820Z,5.00
2023-05-11T19:38:16.731Z,4.82
2023-05-11T19:43:19.861Z,5.28
2023-05-11T19:48:22.886Z,5.05
2023-05-11T19:53:27.410Z,5.50
2023-05-11T19:58:34.467Z,5.30
2023-05-11T20:03:38.821Z,6.32
2023-05-11T20:08:47.899Z,6.20
2023-05-11T20:13:53.613Z,5.32
2023-05-11T20:18:59.533Z,6.90
2023-05-11T20:24:02.862Z,7.80
2023-05-11T20:29:09.713Z,6.05
2023-05-11T20:34:12.878Z,6.80
2023-05-11T20:39:17.668Z,6.60
2023-05-11T20:44:20.336Z,6.05
2023-05-11T20:49:37.692Z,5.53
2023-05-11T20:54:41.765Z,6.40
2023-05-11T21:04:50.062Z,6.00
2023-05-11T21:09:52.874Z,6.20
2023-05-11T21:14:56.987Z,6.28
2023-05-11T21:20:00.063Z,6.25
2023-05-11T21:25:04.100Z,5.55
2023-05-11T21:30:10.153Z,5.70
2023-05-11T21:35:15.053Z,5.35
2023-05-11T21:40:18.275Z,5.85
2023-05-11T21:45:21.546Z,5.57
2023-05-11T21:50:24.518Z,5.72
2023-05-11T21:55:27.225Z,6.22
2023-05-11T22:00:29.993Z,6.70
2023-05-11T22:05:32.651Z,6.35
2023-05-11T22:10:35.269Z,6.55
2023-05-11T22:15:38.476Z,6.50
2023-05-11T22:20:41.184Z,6.35
2023-05-11T22:25:44.508Z,6.47
2023-05-11T22:30:47.247Z,6.63
2023-05-11T22:35:49.888Z,6.60
2023-05-11T22:40:52.743Z,6.63
2023-05-11T22:45:55.633Z,5.82
2023-05-11T22:50:58.329Z,6.30
2023-05-11T22:56:05.641Z,6.80
2023-05-11T23:01:08.916Z,6.32
2023-05-11T23:06:12.409Z,6.97
2023-05-11T23:11:15.520Z,6.22
2023-05-11T23:16:19.423Z,6.97
2023-05-11T23:21:22.077Z,6.97
2023-05-11T23:26:24.908Z,7.18
2023-05-11T23:31:28.555Z,7.47
2023-05-11T23:36:31.349Z,7.63
2023-05-11T23:41:33.980Z,6.95
2023-05-11T23:46:36.768Z,7.18
2023-05-11T23:51:39.634Z,7.13
2023-05-11T23:56:44.314Z,7.35
